OEDF/DMM METAR and TAF weather

Enter ICAO airport designator
Station Type Date Time Source
OEDF METAR 2020/01/18 15:00 UTC NOAA

OEDF 181500Z 13012KT CAVOK 19/11 Q1014 NOSIG


Station Type Date Time Source
OEDF Decoded METAR 2020/01/18 15:00 UTC NOAA

Dammam-King Fahd International Airport, Saudi Arabia (OEDF) 26-28N 049-47E
Jan 18, 2020 - 10:00 AM EST / 2020.01.18 1500 UTC
Wind: from the SE (130 degrees) at 14 MPH (12 KT):0
Visibility: greater than 7 mile(s):0
Temperature: 66 F (19 C)
Dew Point: 51 F (11 C)
Relative Humidity: 59%
Pressure (altimeter): 29.94 in. Hg (1014 hPa)
ob: OEDF 181500Z 13012KT CAVOK 19/11 Q1014 NOSIG
cycle: 15

Station Type Date Time Source
OEDF TAF 2020/01/18 12:06 UTC NOAA

TAF TAF OEDF 181000Z 1812/1918 18012G22KT 8000 NSC
TEMPO 1812/1816 4000 BLDU
BECMG 1818/1820 16008KT

Example: see airport list